Time;durP1;ratioP1;P1;durP2;ratioP2;P2;SDS_P1;SDS_P2;PMS_P1;PMS_P2;Temp;Humidity;BMP_temperature;BMP_pressure;BME280_temperature;BME280_humidity;BME280_pressure;Samples;Min_cycle;Max_cycle;Signal;HPM_P1;HPM_P2
2021/07/04 00:01:27;;;;;;;6.63;6.03;;;19.60;99.90;;;;;;5028559;28;20172;-80
2021/07/04 00:03:53;;;;;;;7.78;7.07;;;19.60;99.90;;;;;;5013414;28;20208;-80
2021/07/04 00:06:19;;;;;;;7.05;6.45;;;19.60;99.90;;;;;;5013229;28;20527;-81
2021/07/04 00:08:44;;;;;;;9.63;8.25;;;19.60;99.90;;;;;;5013247;28;20172;-80
2021/07/04 00:11:10;;;;;;;7.57;6.47;;;19.60;99.90;;;;;;5013272;28;20184;-80
2021/07/04 00:13:38;;;;;;;8.80;7.00;;;19.70;99.90;;;;;;5013124;28;20195;-80
2021/07/04 00:16:04;;;;;;;11.60;6.68;;;19.50;99.90;;;;;;5012052;28;20164;-81
2021/07/04 00:18:32;;;;;;;6.50;5.90;;;19.40;99.90;;;;;;5013375;28;20180;-80
2021/07/04 00:20:59;;;;;;;12.63;6.93;;;19.20;99.90;;;;;;5013218;28;20708;-80
2021/07/04 00:23:26;;;;;;;7.15;6.55;;;19.10;99.90;;;;;;5013512;28;20181;-81
2021/07/04 00:25:53;;;;;;;7.07;6.47;;;19.10;99.90;;;;;;5012141;28;20176;-80
2021/07/04 00:28:18;;;;;;;9.90;5.90;;;19.10;99.90;;;;;;5013072;28;20291;-81
2021/07/04 00:30:44;;;;;;;7.40;6.35;;;19.10;99.90;;;;;;5013181;28;20191;-80
2021/07/04 00:33:10;;;;;;;8.10;7.30;;;19.00;99.90;;;;;;5012873;28;20275;-80
2021/07/04 00:35:36;;;;;;;7.07;6.47;;;18.90;99.90;;;;;;5012713;28;20172;-81
2021/07/04 00:38:07;;;;;;;8.13;7.43;;;18.90;99.90;;;;;;5028340;28;20175;-81
2021/07/04 00:40:33;;;;;;;7.72;6.95;;;19.10;99.90;;;;;;5028062;28;20301;-81
2021/07/04 00:42:59;;;;;;;7.05;6.45;;;19.00;99.90;;;;;;5012623;28;20192;-81
2021/07/04 00:45:26;;;;;;;7.65;6.80;;;18.90;99.90;;;;;;5012477;28;20572;-81
2021/07/04 00:47:53;;;;;;;7.82;6.65;;;19.00;99.90;;;;;;5012600;28;20247;-80
2021/07/04 00:50:21;;;;;;;12.68;7.30;;;19.10;99.90;;;;;;5012381;28;20199;-81
2021/07/04 00:52:47;;;;;;;15.05;7.30;;;19.00;99.90;;;;;;5011361;28;20192;-81
2021/07/04 00:55:15;;;;;;;9.02;7.15;;;19.00;99.90;;;;;;5013068;28;20256;-81
2021/07/04 00:57:42;;;;;;;7.72;7.03;;;19.10;99.90;;;;;;5012846;28;20165;-81
2021/07/04 01:00:12;;;;;;;7.38;6.68;;;19.00;99.90;;;;;;5013723;28;20303;-81
2021/07/04 01:02:38;;;;;;;8.52;7.03;;;18.90;99.90;;;;;;5029867;28;20176;-81
2021/07/04 01:05:12;;;;;;;6.65;5.95;;;18.80;99.90;;;;;;5016883;28;20204;-81
2021/07/04 01:07:39;;;;;;;9.52;6.15;;;18.80;99.90;;;;;;5016113;28;20195;-80
2021/07/04 01:10:07;;;;;;;18.73;6.53;;;18.50;99.90;;;;;;5014953;28;20196;-80
2021/07/04 01:12:34;;;;;;;7.13;6.47;;;18.60;99.90;;;;;;5012762;28;20226;-80
2021/07/04 01:15:01;;;;;;;7.13;6.53;;;18.70;99.90;;;;;;5012775;28;20168;-81
2021/07/04 01:17:27;;;;;;;6.80;6.22;;;18.70;99.90;;;;;;5012761;28;20247;-81
2021/07/04 01:19:52;;;;;;;8.07;7.32;;;18.70;99.90;;;;;;5011327;28;20258;-81
2021/07/04 01:22:19;;;;;;;9.77;6.63;;;18.70;99.90;;;;;;5012431;28;20192;-81
2021/07/04 01:24:45;;;;;;;7.72;7.03;;;18.60;99.90;;;;;;5012224;28;20215;-80
2021/07/04 01:27:10;;;;;;;9.00;7.25;;;18.90;99.90;;;;;;5027609;28;20178;-81
2021/07/04 01:29:36;;;;;;;8.07;6.82;;;19.00;99.90;;;;;;5012542;28;20203;-80
2021/07/04 01:32:02;;;;;;;10.18;7.20;;;19.10;99.90;;;;;;5012633;28;20227;-81
2021/07/04 01:34:28;;;;;;;11.02;6.80;;;19.10;99.90;;;;;;5012526;28;20192;-80
2021/07/04 01:36:53;;;;;;;9.85;6.50;;;19.10;99.90;;;;;;5012267;28;20179;-80
2021/07/04 01:39:19;;;;;;;9.43;7.05;;;18.90;99.90;;;;;;5012097;28;20201;-80
2021/07/04 01:41:45;;;;;;;7.70;7.05;;;18.80;99.90;;;;;;5027614;28;20169;-81
2021/07/04 01:44:10;;;;;;;10.13;7.18;;;18.90;99.90;;;;;;5012250;28;20212;-81
2021/07/04 01:46:36;;;;;;;9.02;7.32;;;19.10;99.90;;;;;;5012365;28;20187;-80
2021/07/04 01:49:02;;;;;;;11.90;6.63;;;19.30;99.90;;;;;;5012153;28;20169;-80
2021/07/04 01:51:28;;;;;;;8.45;7.65;;;19.30;99.90;;;;;;5012438;28;20220;-80
2021/07/04 01:53:54;;;;;;;9.68;8.60;;;19.10;99.90;;;;;;5012444;28;20936;-80
2021/07/04 01:56:20;;;;;;;10.05;7.40;;;19.10;99.90;;;;;;5012593;28;20164;-81
2021/07/04 01:58:45;;;;;;;7.95;7.20;;;19.40;99.90;;;;;;5012247;28;20603;-80
2021/07/04 02:01:11;;;;;;;8.40;7.57;;;19.30;99.90;;;;;;5012863;28;20191;-81
2021/07/04 02:03:37;;;;;;;7.50;6.70;;;19.40;99.90;;;;;;5012293;28;20262;-80
2021/07/04 02:06:03;;;;;;;8.02;7.28;;;19.40;99.90;;;;;;5027695;28;20212;-81
2021/07/04 02:08:29;;;;;;;8.65;7.75;;;19.30;99.90;;;;;;5012740;28;20172;-80
2021/07/04 02:10:55;;;;;;;10.73;8.82;;;19.30;99.90;;;;;;5012505;28;20193;-81
2021/07/04 02:13:20;;;;;;;8.05;7.35;;;19.30;99.90;;;;;;5013785;28;20271;-81
2021/07/04 02:15:46;;;;;;;8.70;7.80;;;19.30;99.90;;;;;;5016283;28;20180;-80
2021/07/04 02:18:15;;;;;;;8.65;7.82;;;19.30;99.90;;;;;;5016239;28;20625;-80
2021/07/04 02:20:48;;;;;;;12.65;7.40;;;19.10;99.90;;;;;;5016095;28;20637;-81
2021/07/04 02:23:33;;;;;;;11.15;7.03;;;19.10;99.90;;;;;;5015944;28;20180;-80
2021/07/04 02:26:00;;;;;;;8.88;8.02;;;19.20;99.90;;;;;;5016088;28;20235;-80
2021/07/04 02:28:27;;;;;;;10.88;7.70;;;19.20;99.90;;;;;;5017830;28;20169;-80
2021/07/04 02:30:54;;;;;;;8.52;7.75;;;18.90;99.90;;;;;;5022925;28;20169;-81
2021/07/04 02:33:21;;;;;;;9.77;7.70;;;18.90;99.90;;;;;;5023080;28;20730;-81
2021/07/04 02:35:54;;;;;;;8.57;7.78;;;18.80;99.90;;;;;;5024077;28;20252;-80
2021/07/04 02:38:20;;;;;;;8.40;7.55;;;18.90;99.90;;;;;;5026132;28;20196;-81
2021/07/04 02:40:47;;;;;;;9.90;7.28;;;19.00;99.90;;;;;;5039608;28;20266;-80
2021/07/04 02:43:15;;;;;;;8.18;7.50;;;19.10;99.90;;;;;;5023996;28;20258;-80
2021/07/04 02:45:42;;;;;;;8.65;7.72;;;18.90;99.90;;;;;;5042085;28;20196;-80
2021/07/04 02:48:09;;;;;;;8.50;7.80;;;18.90;99.90;;;;;;5027753;28;20177;-81
2021/07/04 02:50:35;;;;;;;9.80;7.53;;;19.00;99.90;;;;;;5025457;28;20641;-81
2021/07/04 02:53:01;;;;;;;8.18;7.40;;;19.10;99.90;;;;;;5016231;28;20199;-80
2021/07/04 02:55:27;;;;;;;9.52;7.78;;;19.00;99.90;;;;;;5031421;28;20173;-80
2021/07/04 02:57:52;;;;;;;8.50;7.55;;;19.10;99.90;;;;;;5016116;28;20176;-81
2021/07/04 03:00:21;;;;;;;8.27;7.57;;;18.90;99.90;;;;;;5015137;28;20172;-80
2021/07/04 03:02:48;;;;;;;8.65;7.80;;;19.00;99.90;;;;;;5014751;28;20196;-80
2021/07/04 03:05:14;;;;;;;8.90;7.47;;;19.20;99.90;;;;;;5013564;28;20208;-80
2021/07/04 03:07:40;;;;;;;8.35;7.28;;;19.40;99.90;;;;;;5015246;28;20242;-80
2021/07/04 03:10:07;;;;;;;8.00;7.22;;;19.50;99.90;;;;;;5030182;28;20212;-81
2021/07/04 03:12:34;;;;;;;8.50;7.72;;;19.50;99.90;;;;;;5015293;28;20245;-80
2021/07/04 03:14:59;;;;;;;8.25;7.30;;;19.20;99.90;;;;;;5015777;28;20180;-80
2021/07/04 03:17:25;;;;;;;8.35;7.55;;;19.20;99.90;;;;;;5015990;28;20215;-80
2021/07/04 03:19:51;;;;;;;7.82;7.13;;;19.20;99.90;;;;;;5015551;28;20169;-80
2021/07/04 03:22:17;;;;;;;12.25;8.35;;;19.20;99.90;;;;;;5014398;28;20255;-81
2021/07/04 03:24:43;;;;;;;9.18;8.27;;;19.20;99.90;;;;;;5012239;28;20331;-81
2021/07/04 03:27:09;;;;;;;9.07;8.15;;;19.40;99.90;;;;;;5029901;28;20712;-79
2021/07/04 03:29:35;;;;;;;8.93;7.70;;;19.50;99.90;;;;;;5013484;28;20629;-80
2021/07/04 03:32:02;;;;;;;10.15;7.78;;;19.30;99.90;;;;;;5029725;28;20196;-80
2021/07/04 03:34:28;;;;;;;7.93;7.25;;;19.30;99.90;;;;;;5014292;28;20188;-80
2021/07/04 03:36:53;;;;;;;8.38;7.57;;;19.30;99.90;;;;;;5014294;28;20168;-80
2021/07/04 03:39:19;;;;;;;9.02;7.75;;;19.30;99.90;;;;;;5013905;28;20168;-80
2021/07/04 03:41:45;;;;;;;11.90;8.32;;;19.30;99.90;;;;;;5013932;28;20157;-80
2021/07/04 03:44:10;;;;;;;8.52;7.70;;;19.40;99.90;;;;;;5013043;28;20216;-80
2021/07/04 03:46:36;;;;;;;8.10;7.38;;;19.20;99.90;;;;;;5014735;28;20199;-80
2021/07/04 03:49:02;;;;;;;8.23;7.50;;;19.10;99.90;;;;;;5020617;28;20253;-81
2021/07/04 03:51:28;;;;;;;9.15;7.63;;;18.90;99.90;;;;;;5019870;28;20175;-80
2021/07/04 03:53:54;;;;;;;8.20;7.50;;;18.90;99.90;;;;;;5021323;28;20559;-80
2021/07/04 03:56:20;;;;;;;8.45;7.75;;;19.00;99.90;;;;;;5015500;28;20176;-80
2021/07/04 03:58:46;;;;;;;10.60;7.82;;;19.20;99.90;;;;;;5013935;28;20161;-80
2021/07/04 04:01:18;;;;;;;8.48;7.40;;;19.40;99.90;;;;;;5013587;28;20188;-80
2021/07/04 04:03:45;;;;;;;7.90;7.10;;;19.40;99.90;;;;;;5012107;28;20667;-80
2021/07/04 04:06:10;;;;;;;9.38;7.80;;;19.40;99.90;;;;;;5013656;28;20169;-80
2021/07/04 04:08:36;;;;;;;8.80;7.88;;;19.50;99.90;;;;;;5013695;28;20252;-79
2021/07/04 04:11:04;;;;;;;8.32;7.53;;;19.40;99.90;;;;;;5013346;28;20184;-80
2021/07/04 04:13:30;;;;;;;9.55;7.32;;;19.40;99.90;;;;;;5028658;28;20195;-80
2021/07/04 04:15:55;;;;;;;7.00;6.45;;;19.40;99.90;;;;;;5013640;28;20164;-80
2021/07/04 04:18:21;;;;;;;8.25;7.55;;;19.50;99.90;;;;;;5014456;28;20176;-79
2021/07/04 04:20:46;;;;;;;7.85;7.20;;;19.60;99.90;;;;;;5014313;28;20176;-79
2021/07/04 04:23:12;;;;;;;8.45;7.70;;;19.70;99.90;;;;;;5012844;28;20283;-79
2021/07/04 04:25:38;;;;;;;8.65;7.80;;;19.80;99.90;;;;;;5012668;28;20250;-80
2021/07/04 04:28:05;;;;;;;10.27;7.30;;;19.70;99.90;;;;;;5013238;28;20172;-79
2021/07/04 04:30:34;;;;;;;13.98;8.38;;;19.50;99.90;;;;;;5012824;28;20644;-79
2021/07/04 04:33:01;;;;;;;8.35;7.63;;;19.50;99.90;;;;;;5013251;28;20192;-79
2021/07/04 04:35:26;;;;;;;15.15;7.60;;;19.60;99.90;;;;;;5014349;28;20173;-81
2021/07/04 04:37:52;;;;;;;10.65;7.43;;;19.60;99.90;;;;;;5014773;28;20183;-80
2021/07/04 04:40:18;;;;;;;9.20;8.30;;;19.80;99.90;;;;;;5013436;28;20192;-79
2021/07/04 04:42:44;;;;;;;11.75;8.02;;;20.00;99.90;;;;;;5013289;28;20188;-80
2021/07/04 04:45:09;;;;;;;8.07;7.38;;;20.00;99.90;;;;;;5013147;28;20208;-80
2021/07/04 04:47:36;;;;;;;7.68;7.07;;;19.80;99.90;;;;;;5029004;28;20161;-79
2021/07/04 04:50:04;;;;;;;7.93;7.22;;;19.80;99.90;;;;;;5013492;28;20180;-79
2021/07/04 04:52:29;;;;;;;9.30;7.45;;;20.00;99.90;;;;;;5013118;28;20676;-80
2021/07/04 04:54:56;;;;;;;9.25;8.32;;;20.00;99.90;;;;;;5014192;28;20207;-79
2021/07/04 04:57:21;;;;;;;11.93;8.25;;;20.00;99.90;;;;;;5013689;28;20204;-80
2021/07/04 04:59:47;;;;;;;8.55;7.75;;;20.10;99.90;;;;;;5028507;28;20712;-81
2021/07/04 05:02:13;;;;;;;8.82;8.02;;;20.20;99.90;;;;;;5013095;28;20165;-81
2021/07/04 05:04:38;;;;;;;7.97;7.38;;;20.30;99.90;;;;;;5013137;28;20212;-80
2021/07/04 05:07:04;;;;;;;8.35;7.35;;;20.50;99.90;;;;;;5011976;28;20255;-80
2021/07/04 05:09:30;;;;;;;9.05;7.78;;;20.70;99.90;;;;;;5013688;28;20247;-79
2021/07/04 05:11:56;;;;;;;8.48;7.70;;;21.00;99.90;;;;;;5012428;28;20223;-79
2021/07/04 05:14:22;;;;;;;8.25;7.55;;;21.10;99.90;;;;;;5028544;28;20798;-79
2021/07/04 05:16:48;;;;;;;8.25;7.43;;;21.30;99.90;;;;;;5028408;28;20263;-80
2021/07/04 05:19:14;;;;;;;7.40;6.80;;;21.50;99.90;;;;;;5012581;28;20660;-79
2021/07/04 05:21:40;;;;;;;8.93;6.32;;;21.70;99.90;;;;;;5012515;28;20649;-79
2021/07/04 05:24:07;;;;;;;8.63;6.60;;;21.70;99.90;;;;;;5027434;28;20208;-80
2021/07/04 05:26:33;;;;;;;8.90;7.10;;;21.60;99.90;;;;;;5027870;28;20544;-80
2021/07/04 05:28:59;;;;;;;8.48;6.78;;;21.80;99.90;;;;;;5010762;28;20164;-79
2021/07/04 05:31:26;;;;;;;9.15;5.63;;;21.90;99.90;;;;;;5027355;28;20634;-81
2021/07/04 05:33:52;;;;;;;7.90;6.35;;;21.80;99.90;;;;;;5012114;28;20197;-81
2021/07/04 05:36:18;;;;;;;7.18;6.57;;;21.70;99.90;;;;;;5027707;28;20266;-81
2021/07/04 05:38:44;;;;;;;7.45;6.82;;;21.70;99.90;;;;;;5012333;28;20732;-79
2021/07/04 05:41:11;;;;;;;6.32;5.82;;;21.90;99.90;;;;;;5011885;28;20189;-79
2021/07/04 05:43:39;;;;;;;6.20;5.70;;;22.00;99.90;;;;;;5011804;28;20723;-82
2021/07/04 05:46:05;;;;;;;6.20;5.60;;;21.90;99.90;;;;;;5012054;28;20283;-81
2021/07/04 05:48:30;;;;;;;10.25;6.10;;;22.10;99.90;;;;;;5013974;28;20288;-81
2021/07/04 05:50:56;;;;;;;5.90;4.90;;;22.30;99.90;;;;;;5015510;28;20215;-81
2021/07/04 05:53:22;;;;;;;5.28;4.85;;;22.60;99.90;;;;;;5014344;28;20338;-82
2021/07/04 05:55:49;;;;;;;5.55;5.00;;;22.90;99.90;;;;;;5015822;28;20252;-79
2021/07/04 05:58:15;;;;;;;4.95;4.50;;;23.10;99.90;;;;;;5015198;28;20187;-82
2021/07/04 06:00:41;;;;;;;4.85;4.30;;;23.00;99.90;;;;;;5014413;28;20172;-82
2021/07/04 06:03:06;;;;;;;4.93;4.38;;;23.10;99.90;;;;;;5014359;28;20540;-81
2021/07/04 06:05:32;;;;;;;5.20;4.22;;;23.10;99.90;;;;;;5015498;28;20351;-80
2021/07/04 06:07:58;;;;;;;8.23;4.93;;;23.20;99.90;;;;;;5015898;28;20192;-80
2021/07/04 06:10:24;;;;;;;4.45;4.15;;;23.10;99.90;;;;;;5015744;28;20313;-80
2021/07/04 06:12:50;;;;;;;4.30;4.00;;;23.30;99.90;;;;;;5030889;28;20613;-81
2021/07/04 06:15:16;;;;;;;4.85;4.45;;;23.10;99.90;;;;;;5015145;28;20200;-81
2021/07/04 06:17:42;;;;;;;4.82;4.43;;;23.20;99.90;;;;;;5015643;28;20173;-81
2021/07/04 06:20:10;;;;;;;5.45;4.95;;;23.30;99.90;;;;;;5015195;28;20168;-80
2021/07/04 06:22:36;;;;;;;3.92;3.63;;;23.30;99.90;;;;;;5015456;28;20633;-81
2021/07/04 06:25:07;;;;;;;4.85;4.45;;;23.50;99.90;;;;;;5015048;28;20217;-81
2021/07/04 06:27:33;;;;;;;4.72;4.32;;;23.60;99.90;;;;;;5015498;28;20168;-81
2021/07/04 06:29:59;;;;;;;3.92;3.60;;;23.90;99.90;;;;;;5017452;28;20203;-81
2021/07/04 06:32:25;;;;;;;5.13;4.72;;;23.90;99.90;;;;;;5027338;28;20172;-80
2021/07/04 06:34:51;;;;;;;5.00;4.60;;;23.90;99.90;;;;;;5029247;28;20191;-81
2021/07/04 06:37:17;;;;;;;3.60;3.30;;;24.00;99.90;;;;;;5026380;28;20218;-82
2021/07/04 06:39:42;;;;;;;5.05;4.65;;;24.20;99.90;;;;;;5016010;28;20641;-81
2021/07/04 06:42:09;;;;;;;4.75;4.35;;;24.40;99.90;;;;;;5015943;28;20160;-81
2021/07/04 06:44:38;;;;;;;3.88;3.58;;;24.40;99.90;;;;;;5015291;28;20319;-80
2021/07/04 06:47:05;;;;;;;4.47;4.18;;;24.70;99.90;;;;;;5015677;28;20179;-81
2021/07/04 06:49:31;;;;;;;4.20;3.90;;;25.00;99.90;;;;;;5031423;28;20521;-82
2021/07/04 06:51:57;;;;;;;7.07;3.67;;;24.90;99.90;;;;;;5014704;28;20172;-80
2021/07/04 06:54:22;;;;;;;11.63;3.38;;;25.10;99.90;;;;;;5015990;28;20681;-81
2021/07/04 06:56:48;;;;;;;4.07;3.08;;;25.10;99.90;;;;;;5015906;28;20175;-80
2021/07/04 06:59:14;;;;;;;5.68;2.33;;;25.00;99.90;;;;;;5010429;28;21267;-81
2021/07/04 07:01:39;;;;;;;3.00;2.70;;;25.00;99.90;;;;;;5024562;28;20172;-80
2021/07/04 07:04:05;;;;;;;2.60;1.60;;;25.10;99.90;;;;;;5014837;28;20295;-80
2021/07/04 07:06:31;;;;;;;2.78;2.50;;;26.00;99.90;;;;;;5015488;28;20191;-80
2021/07/04 07:08:57;;;;;;;2.20;2.03;;;26.80;99.90;;;;;;5015306;28;20177;-81
2021/07/04 07:11:22;;;;;;;4.82;1.80;;;27.90;99.90;;;;;;5024774;28;20576;-80
2021/07/04 07:13:48;;;;;;;2.60;2.40;;;29.10;99.90;;;;;;5011659;28;20598;-81
2021/07/04 07:16:14;;;;;;;2.35;2.17;;;29.50;99.90;;;;;;5014554;28;20180;-79
2021/07/04 07:18:39;;;;;;;10.45;1.95;;;29.90;99.90;;;;;;5013796;28;20216;-81
2021/07/04 07:21:05;;;;;;;2.75;2.55;;;30.20;99.90;;;;;;5015494;28;20240;-87
2021/07/04 07:23:31;;;;;;;3.03;2.70;;;29.80;99.90;;;;;;5014934;28;20943;-81
2021/07/04 07:25:57;;;;;;;2.50;2.30;;;29.40;99.90;;;;;;5013958;28;20764;-85
2021/07/04 07:28:23;;;;;;;2.58;2.28;;;29.20;99.90;;;;;;5014109;28;20183;-77
2021/07/04 07:30:49;;;;;;;3.20;2.65;;;28.30;99.90;;;;;;5013924;28;20180;-77
2021/07/04 07:33:15;;;;;;;5.13;2.83;;;27.90;99.90;;;;;;5014210;28;20259;-82
2021/07/04 07:35:41;;;;;;;2.80;2.60;;;27.50;99.90;;;;;;5014713;28;20165;-77
2021/07/04 07:38:09;;;;;;;6.93;2.45;;;27.50;99.90;;;;;;5012769;28;20235;-79
2021/07/04 07:40:35;;;;;;;2.63;2.08;;;27.70;99.90;;;;;;5012842;28;20218;-78
2021/07/04 07:43:02;;;;;;;4.47;2.30;;;28.20;99.90;;;;;;5014404;28;20223;-78
2021/07/04 07:45:27;;;;;;;2.90;2.00;;;28.40;99.90;;;;;;5014172;28;20668;-82
2021/07/04 07:47:53;;;;;;;3.20;2.35;;;28.80;99.90;;;;;;5013083;28;20215;-77
2021/07/04 07:50:19;;;;;;;3.58;1.80;;;29.00;99.90;;;;;;5013629;28;20534;-77
2021/07/04 07:52:45;;;;;;;1.85;1.70;;;28.90;99.90;;;;;;5013187;28;20199;-76
2021/07/04 07:55:12;;;;;;;3.15;2.10;;;27.70;99.90;;;;;;5012512;28;20248;-76
2021/07/04 07:57:39;;;;;;;2.67;2.20;;;27.30;99.90;;;;;;5012562;28;20720;-76
2021/07/04 08:00:08;;;;;;;2.33;2.13;;;26.90;99.90;;;;;;5013074;28;20180;-78
2021/07/04 08:02:34;;;;;;;2.33;1.65;;;26.70;99.90;;;;;;5012513;28;20207;-79
2021/07/04 08:04:59;;;;;;;1.75;1.55;;;26.30;99.90;;;;;;5013975;28;20264;-78
2021/07/04 08:07:25;;;;;;;2.10;1.90;;;26.10;99.90;;;;;;5014182;28;20618;-78
2021/07/04 08:09:51;;;;;;;1.90;1.80;;;26.10;99.90;;;;;;5013891;28;20181;-80
2021/07/04 08:12:17;;;;;;;1.40;1.20;;;26.20;99.90;;;;;;5013387;28;20176;-80
2021/07/04 08:14:43;;;;;;;2.38;1.90;;;26.10;99.90;;;;;;5013741;28;20198;-79
2021/07/04 08:17:08;;;;;;;1.73;1.42;;;26.00;99.90;;;;;;5012968;28;20172;-80
2021/07/04 08:19:34;;;;;;;2.65;1.80;;;26.10;99.90;;;;;;5013843;28;20520;-80
2021/07/04 08:22:03;;;;;;;2.65;1.63;;;26.10;99.90;;;;;;5012546;28;20255;-80
2021/07/04 08:24:29;;;;;;;2.03;1.52;;;25.50;99.90;;;;;;5028616;28;20254;-80
2021/07/04 08:26:55;;;;;;;2.45;1.60;;;25.50;99.90;;;;;;5013550;28;20314;-81
2021/07/04 08:29:21;;;;;;;2.05;1.83;;;25.70;99.90;;;;;;5028967;28;20172;-80
2021/07/04 08:31:48;;;;;;;3.45;1.75;;;25.30;99.90;;;;;;5012996;28;20172;-80
2021/07/04 08:34:15;;;;;;;2.55;1.70;;;25.10;99.90;;;;;;5010492;28;20211;-81
2021/07/04 08:36:41;;;;;;;3.05;1.88;;;25.40;99.90;;;;;;5004621;28;20176;-79
2021/07/04 08:39:07;;;;;;;2.10;1.92;;;25.40;99.90;;;;;;5012732;28;20264;-86
2021/07/04 08:41:33;;;;;;;5.55;1.80;;;25.40;99.90;;;;;;5008516;28;20174;-86
2021/07/04 08:44:07;;;;;;;4.68;1.70;;;25.50;99.90;;;;;;5006254;28;20665;-87
2021/07/04 08:46:41;;;;;;;6.22;2.28;;;25.60;99.90;;;;;;5029608;28;20629;-89
2021/07/04 08:49:08;;;;;;;3.17;1.90;;;25.40;99.90;;;;;;5012774;28;20585;-86
2021/07/04 08:51:34;;;;;;;6.65;1.83;;;25.30;99.90;;;;;;5012378;28;20202;-87
2021/07/04 08:54:03;;;;;;;2.58;1.90;;;25.20;99.90;;;;;;5028053;28;20192;-88
2021/07/04 08:56:29;;;;;;;3.92;1.90;;;25.20;99.90;;;;;;5029121;28;20288;-87
2021/07/04 08:58:57;;;;;;;2.70;2.05;;;25.10;99.90;;;;;;5029255;28;20176;-87
2021/07/04 09:01:28;;;;;;;6.38;1.83;;;24.30;99.90;;;;;;5012727;28;20227;-88
2021/07/04 09:04:18;;;;;;;3.40;2.17;;;23.90;99.90;;;;;;5030530;28;20204;-87
2021/07/04 09:06:50;;;;;;;2.42;1.80;;;24.20;99.90;;;;;;5013151;28;20172;-86
2021/07/04 09:09:30;;;;;;;3.10;2.00;;;24.00;99.90;;;;;;5029380;28;20176;-84
2021/07/04 09:12:08;;;;;;;1.70;1.60;;;24.20;99.90;;;;;;5015516;28;20828;-85
2021/07/04 09:14:35;;;;;;;2.17;1.98;;;24.10;99.90;;;;;;5031094;28;20184;-85
2021/07/04 09:17:06;;;;;;;2.17;1.73;;;23.50;99.90;;;;;;5015206;28;20185;-87
2021/07/04 09:19:32;;;;;;;3.70;2.10;;;23.70;99.90;;;;;;5015808;28;20191;-85
2021/07/04 09:22:11;;;;;;;3.85;2.28;;;23.90;99.90;;;;;;5019180;28;20177;-86
2021/07/04 09:24:43;;;;;;;1.88;1.60;;;24.10;99.90;;;;;;5033101;28;20215;-87
2021/07/04 09:27:14;;;;;;;1.63;1.52;;;24.20;99.90;;;;;;5033695;28;20262;-86
2021/07/04 09:29:50;;;;;;;2.08;1.58;;;24.10;99.90;;;;;;5013303;28;20197;-86
2021/07/04 09:32:26;;;;;;;1.83;1.73;;;24.10;99.90;;;;;;4996852;28;20176;-87
2021/07/04 09:35:11;;;;;;;2.05;1.50;;;24.00;99.90;;;;;;4996606;28;20177;-85
2021/07/04 09:37:41;;;;;;;1.50;1.40;;;23.90;99.90;;;;;;4996436;28;20177;-85
2021/07/04 09:40:16;;;;;;;1.65;1.55;;;23.60;99.90;;;;;;4996438;28;20173;-84
2021/07/04 09:42:57;;;;;;;3.65;1.38;;;23.70;99.90;;;;;;4996973;28;20278;-85
2021/07/04 09:45:25;;;;;;;1.35;1.25;;;24.00;99.90;;;;;;5013832;28;20208;-86
2021/07/04 09:47:58;;;;;;;1.50;1.40;;;24.20;99.90;;;;;;5026390;28;20168;-84
2021/07/04 09:50:27;;;;;;;5.25;1.35;;;24.00;99.90;;;;;;5051458;28;20180;-84
2021/07/04 09:53:02;;;;;;;1.42;1.33;;;24.00;99.90;;;;;;5038570;28;20185;-85
2021/07/04 09:55:30;;;;;;;1.33;1.25;;;24.40;99.90;;;;;;5036844;28;20176;-84
2021/07/04 09:57:58;;;;;;;6.05;1.30;;;24.10;99.90;;;;;;5035598;28;20187;-84
2021/07/04 10:00:27;;;;;;;1.40;1.30;;;24.30;99.90;;;;;;5051427;28;20199;-87
2021/07/04 10:03:11;;;;;;;2.13;1.20;;;24.00;99.90;;;;;;5051529;28;20243;-86
2021/07/04 10:05:50;;;;;;;6.22;1.30;;;24.20;99.90;;;;;;5045427;28;20269;-87
2021/07/04 10:08:34;;;;;;;1.67;0.95;;;24.00;99.90;;;;;;5017956;28;20172;-84
2021/07/04 10:11:16;;;;;;;1.35;1.25;;;24.10;99.90;;;;;;5034601;28;20192;-87
2021/07/04 10:13:49;;;;;;;1.13;0.90;;;24.20;99.90;;;;;;5019882;28;20192;-87
2021/07/04 10:16:18;;;;;;;1.60;1.30;;;23.90;99.90;;;;;;5021112;28;20262;-87
2021/07/04 10:18:46;;;;;;;1.67;1.38;;;23.80;99.90;;;;;;5017525;28;20192;-88
2021/07/04 10:21:13;;;;;;;1.50;1.40;;;23.60;99.90;;;;;;5016845;28;20172;-86
2021/07/04 10:23:51;;;;;;;2.38;1.67;;;23.50;99.90;;;;;;5015534;28;20545;-88
2021/07/04 10:26:17;;;;;;;1.95;1.52;;;23.30;99.90;;;;;;5015841;28;20172;-86
2021/07/04 10:28:46;;;;;;;3.03;1.88;;;23.40;99.90;;;;;;5019155;28;20181;-85
2021/07/04 10:31:17;;;;;;;2.03;1.42;;;22.80;99.90;;;;;;5016132;28;20180;-86
2021/07/04 10:34:03;;;;;;;2.03;0.40;;;21.80;99.90;;;;;;5015791;28;20200;-87
2021/07/04 10:36:28;;;;;;;3.88;0.88;;;20.70;99.90;;;;;;5013318;28;20533;-82
2021/07/04 10:39:00;;;;;;;1.58;0.90;;;20.30;99.90;;;;;;5013409;28;20184;-84
2021/07/04 10:41:29;;;;;;;5.60;0.60;;;19.60;99.90;;;;;;5012966;28;20183;-84
2021/07/04 10:44:15;;;;;;;3.42;1.00;;;18.80;99.90;;;;;;5011596;28;20197;-84
2021/07/04 10:46:43;;;;;;;2.10;0.80;;;18.00;99.90;;;;;;4997517;28;20173;-86
2021/07/04 10:49:20;;;;;;;0.88;0.60;;;17.50;99.90;;;;;;4995184;28;20173;-84
2021/07/04 10:52:05;;;;;;;1.70;0.50;;;17.30;99.90;;;;;;4995820;28;20173;-86
2021/07/04 10:54:46;;;;;;;2.67;1.15;;;17.30;99.90;;;;;;4996686;28;20196;-85
2021/07/04 10:57:37;;;;;;;2.97;0.98;;;17.40;99.90;;;;;;4995107;28;20177;-87
2021/07/04 11:00:03;;;;;;;0.88;0.77;;;17.40;99.90;;;;;;5011400;28;20619;-83
2021/07/04 11:02:46;;;;;;;1.00;0.90;;;17.40;99.90;;;;;;4994319;28;20173;-84
2021/07/04 11:05:30;;;;;;;3.67;0.73;;;17.30;99.90;;;;;;4994547;28;20312;-85
2021/07/04 11:07:56;;;;;;;1.67;0.80;;;17.10;99.90;;;;;;4994838;28;20235;-85
2021/07/04 11:10:38;;;;;;;2.15;0.70;;;17.20;99.90;;;;;;4994536;28;20653;-83
2021/07/04 11:13:07;;;;;;;2.10;0.52;;;17.30;99.90;;;;;;5010246;28;20189;-80
2021/07/04 11:15:36;;;;;;;0.77;0.50;;;17.00;99.90;;;;;;4994541;28;20251;-81
2021/07/04 11:18:06;;;;;;;0.50;0.50;;;17.20;99.90;;;;;;5005265;28;20212;-81
2021/07/04 11:20:32;;;;;;;1.00;0.70;;;17.20;99.90;;;;;;5014690;28;20172;-80
2021/07/04 11:23:19;;;;;;;1.38;0.80;;;17.40;99.90;;;;;;5015530;28;20580;-80
2021/07/04 11:25:53;;;;;;;3.17;0.70;;;17.40;99.90;;;;;;5030535;28;20254;-80
2021/07/04 11:28:24;;;;;;;3.60;0.70;;;17.40;99.90;;;;;;5014779;28;20211;-83
2021/07/04 11:30:59;;;;;;;1.40;1.00;;;17.60;99.90;;;;;;5015065;28;20164;-79
2021/07/04 11:33:45;;;;;;;1.73;0.80;;;17.80;99.90;;;;;;5014345;28;20196;-79
2021/07/04 11:36:16;;;;;;;0.77;0.70;;;18.00;99.90;;;;;;5013502;28;20200;-80
2021/07/04 11:39:05;;;;;;;1.27;0.95;;;18.30;99.90;;;;;;5013684;28;20172;-80
2021/07/04 11:41:41;;;;;;;3.42;2.95;;;18.50;99.90;;;;;;5013746;28;20160;-80
2021/07/04 11:44:15;;;;;;;3.88;3.35;;;18.60;99.90;;;;;;5018887;28;20687;-80
2021/07/04 11:46:46;;;;;;;7.50;4.78;;;18.70;99.90;;;;;;5028736;28;20255;-82
2021/07/04 11:49:13;;;;;;;3.40;2.17;;;18.80;99.90;;;;;;5013694;28;20168;-81
2021/07/04 11:51:51;;;;;;;0.68;0.68;;;18.90;99.90;;;;;;5014330;28;20621;-81
2021/07/04 11:54:20;;;;;;;5.60;0.60;;;19.10;99.90;;;;;;5014330;28;20192;-78
2021/07/04 11:59:58;;;;;;;0.77;0.70;;;19.40;99.90;;;;;;5010155;28;20730;-81
2021/07/04 12:02:25;;;;;;;0.50;0.50;;;19.40;99.90;;;;;;5025296;28;20171;-82
2021/07/04 12:04:51;;;;;;;1.23;0.40;;;19.60;99.90;;;;;;5031023;28;20208;-82
2021/07/04 12:07:22;;;;;;;1.65;1.17;;;19.60;99.90;;;;;;4998737;28;20609;-82
2021/07/04 12:09:53;;;;;;;3.67;2.83;;;19.80;99.90;;;;;;4995054;28;20553;-80
2021/07/04 12:12:21;;;;;;;2.45;1.38;;;19.80;99.90;;;;;;4995590;28;20157;-81
2021/07/04 12:14:50;;;;;;;2.72;1.10;;;19.50;99.90;;;;;;4995280;28;20228;-80
2021/07/04 12:17:16;;;;;;;3.85;1.10;;;19.50;99.90;;;;;;4994164;28;20166;-82
2021/07/04 12:19:44;;;;;;;4.10;0.60;;;19.60;99.90;;;;;;4994152;28;20235;-81
2021/07/04 12:22:13;;;;;;;4.15;0.60;;;19.60;99.90;;;;;;4994060;28;20165;-81
2021/07/04 12:24:44;;;;;;;0.80;0.50;;;19.40;99.90;;;;;;4996014;28;20669;-82
2021/07/04 12:27:11;;;;;;;0.85;0.57;;;19.40;99.90;;;;;;4995428;28;20613;-85
2021/07/04 12:30:00;;;;;;;0.85;0.60;;;19.40;99.90;;;;;;4993953;28;20255;-84
2021/07/04 12:32:28;;;;;;;1.10;0.52;;;19.50;99.90;;;;;;4993868;28;20205;-85
2021/07/04 12:34:53;;;;;;;2.92;0.75;;;19.60;99.90;;;;;;4992885;28;20165;-80
2021/07/04 12:37:19;;;;;;;0.60;0.50;;;19.80;99.90;;;;;;4991118;28;20207;-80
2021/07/04 12:40:04;;;;;;;1.75;0.80;;;19.90;99.90;;;;;;4991359;28;20543;-81
2021/07/04 12:42:29;;;;;;;0.80;0.80;;;20.30;99.90;;;;;;4992641;28;20189;-80
2021/07/04 12:45:09;;;;;;;0.65;0.57;;;20.70;99.90;;;;;;4993535;28;20231;-83
2021/07/04 12:47:35;;;;;;;0.52;0.43;;;21.00;99.90;;;;;;4993027;28;20173;-81
2021/07/04 12:50:04;;;;;;;0.95;0.30;;;21.00;99.90;;;;;;4992943;28;20176;-79
2021/07/04 12:52:33;;;;;;;0.55;0.35;;;21.20;99.90;;;;;;4994098;28;20280;-81
2021/07/04 12:54:58;;;;;;;0.47;0.38;;;21.10;99.90;;;;;;4993074;28;20169;-80